Welcome to the New NWS' Forecast!
Most changes are behind the scenes, but click here for differences you might notice.

Terminal Aerodrome Forecast (TAF)

Issued by National Weather Service (NWS)

                            
151 
FTUS42 KKEY 141240 RRA
TAFEYW
TAF
KEYW 141240Z 1413/1512 12009KT P6SM SCT025 SCT100 SCT250=